createdAt,value
2022-08-01T00:02:28.018Z,100827.53
2022-08-01T00:10:02.041Z,100830.38
2022-08-01T00:17:37.085Z,100834.31
2022-08-01T00:25:10.873Z,100848.53
2022-08-01T00:32:45.968Z,100840.75
2022-08-01T00:40:19.490Z,100822.94
2022-08-01T00:47:54.956Z,100837.41
2022-08-01T00:55:29.514Z,100829.06
2022-08-01T01:03:04.732Z,100832.81
2022-08-01T01:10:42.516Z,100825.78
2022-08-01T01:18:19.854Z,100827.50
2022-08-01T01:26:03.795Z,100832.16
2022-08-01T01:33:47.309Z,100825.91
2022-08-01T01:41:21.967Z,100815.13
2022-08-01T01:48:58.854Z,100819.84
2022-08-01T01:56:32.991Z,100814.59
2022-08-01T02:04:08.224Z,100815.66
2022-08-01T02:12:08.030Z,100811.19
2022-08-01T02:19:38.126Z,100812.25
2022-08-01T02:27:13.695Z,100821.44
2022-08-01T02:34:50.642Z,100813.44
2022-08-01T02:42:25.671Z,100817.16
2022-08-01T02:50:02.202Z,100804.59
2022-08-01T02:57:44.691Z,100808.41
2022-08-01T03:05:27.842Z,100811.19
2022-08-01T03:13:02.412Z,100810.63
2022-08-01T03:20:37.491Z,100806.16
2022-08-01T03:28:14.085Z,100819.13
2022-08-01T03:35:50.800Z,100828.34
2022-08-01T03:43:28.983Z,100825.63
2022-08-01T03:51:04.827Z,100830.94
2022-08-01T03:58:40.537Z,100831.97
2022-08-01T04:06:15.741Z,100832.13
2022-08-01T04:13:49.348Z,100833.91
2022-08-01T04:21:25.107Z,100837.50
2022-08-01T04:28:58.784Z,100843.06
2022-08-01T04:36:35.177Z,100846.59
2022-08-01T04:44:08.923Z,100849.38
2022-08-01T04:51:53.303Z,100862.06
2022-08-01T04:59:42.351Z,100860.25
2022-08-01T05:07:17.714Z,100861.03
2022-08-01T05:14:51.939Z,100866.53
2022-08-01T05:22:26.837Z,100861.88
2022-08-01T05:30:00.411Z,100856.38
2022-08-01T05:37:35.365Z,100870.66
2022-08-01T05:45:09.211Z,100868.88
2022-08-01T05:52:44.189Z,100875.03
2022-08-01T06:00:18.107Z,100869.66
2022-08-01T06:07:53.195Z,100884.13
2022-08-01T06:15:26.809Z,100882.88
2022-08-01T06:23:05.834Z,100887.84
2022-08-01T06:30:55.666Z,100890.97
2022-08-01T06:38:30.685Z,100901.59
2022-08-01T06:46:04.255Z,100897.06
2022-08-01T06:53:39.918Z,100901.56
2022-08-01T07:01:13.588Z,100900.41
2022-08-01T07:08:48.569Z,100901.09
2022-08-01T07:16:22.184Z,100903.69
2022-08-01T07:23:57.110Z,100907.28
2022-08-01T07:31:32.501Z,100909.75
2022-08-01T07:39:07.581Z,100913.91
2022-08-01T07:46:41.120Z,100925.34
2022-08-01T07:54:16.104Z,100938.78
2022-08-01T08:01:49.755Z,100943.81
2022-08-01T08:09:24.928Z,100955.81
2022-08-01T08:16:58.448Z,100946.91
2022-08-01T08:24:33.413Z,100952.06
2022-08-01T08:32:07.683Z,100942.63
2022-08-01T08:39:42.863Z,100949.41
2022-08-01T08:47:20.290Z,100949.97
2022-08-01T08:54:57.256Z,100960.53
2022-08-01T09:02:30.866Z,100962.50
2022-08-01T09:10:07.154Z,100982.50
2022-08-01T09:17:43.570Z,100987.25
2022-08-01T09:25:20.070Z,101006.34
2022-08-01T09:32:57.246Z,100995.84
2022-08-01T09:48:30.098Z,101011.75
2022-08-01T09:56:10.603Z,101023.00
2022-08-01T10:03:45.735Z,101026.63
2022-08-01T10:11:20.557Z,101035.88
2022-08-01T10:18:56.136Z,101043.56
2022-08-01T10:26:31.603Z,101046.31
2022-08-01T10:34:06.711Z,101047.00
2022-08-01T10:41:42.398Z,101036.06
2022-08-01T10:49:19.004Z,101046.75
2022-08-01T10:56:54.341Z,101035.84
2022-08-01T11:04:42.194Z,101046.22
2022-08-01T11:12:24.719Z,101043.16
2022-08-01T11:20:11.312Z,101058.09
2022-08-01T11:27:46.746Z,101072.84
2022-08-01T11:35:27.704Z,101074.75
2022-08-01T11:43:21.183Z,101084.28
2022-08-01T11:50:56.795Z,101084.81
2022-08-01T11:58:31.452Z,101088.00
2022-08-01T12:06:06.892Z,101075.53
2022-08-01T12:13:41.635Z,101081.78
2022-08-01T12:21:16.661Z,101087.44
2022-08-01T12:28:52.322Z,101078.63
2022-08-01T12:36:30.872Z,101071.81
2022-08-01T12:44:04.638Z,101068.47
2022-08-01T12:51:39.686Z,101074.00
2022-08-01T12:59:25.124Z,101068.38
2022-08-01T13:07:00.022Z,101071.16
2022-08-01T13:14:33.602Z,101080.22
2022-08-01T13:22:08.714Z,101081.88
2022-08-01T13:29:43.104Z,101077.59
2022-08-01T13:37:18.027Z,101089.47
2022-08-01T13:44:51.670Z,101084.13
2022-08-01T13:52:26.617Z,101088.69
2022-08-01T14:00:00.847Z,101094.88
2022-08-01T14:07:35.801Z,101093.22
2022-08-01T14:15:12.354Z,101105.59
2022-08-01T14:22:48.654Z,101110.66
2022-08-01T14:30:22.477Z,101102.13
2022-08-01T14:37:57.686Z,101115.16
2022-08-01T14:45:31.424Z,101118.16
2022-08-01T14:53:06.699Z,101122.44
2022-08-01T15:00:40.420Z,101140.50
2022-08-01T15:08:16.591Z,101138.75
2022-08-01T15:15:50.222Z,101140.34
2022-08-01T15:23:25.371Z,101144.09
2022-08-01T15:30:59.762Z,101147.44
2022-08-01T15:38:34.891Z,101143.41
2022-08-01T15:46:08.806Z,101150.38
2022-08-01T15:53:45.581Z,101146.44
2022-08-01T16:01:19.229Z,101150.81
2022-08-01T16:08:54.164Z,101148.81
2022-08-01T16:16:27.965Z,101164.50
2022-08-01T16:24:02.919Z,101159.31
2022-08-01T16:31:45.272Z,101157.59
2022-08-01T16:39:31.661Z,101156.16
2022-08-01T16:47:09.240Z,101150.41
2022-08-01T16:54:44.957Z,101166.06
2022-08-01T17:02:18.565Z,101163.81
2022-08-01T17:09:53.506Z,101166.22
2022-08-01T17:17:27.179Z,101173.91
2022-08-01T17:25:02.506Z,101165.09
2022-08-01T17:32:36.445Z,101166.25
2022-08-01T17:40:38.603Z,101170.97
2022-08-01T17:48:07.127Z,101173.81
2022-08-01T17:55:56.512Z,101173.94
2022-08-01T18:03:32.757Z,101178.66
2022-08-01T18:11:16.756Z,101178.06
2022-08-01T18:18:50.681Z,101183.69
2022-08-01T18:26:26.695Z,101175.78
2022-08-01T18:34:00.882Z,101190.75
2022-08-01T18:41:36.881Z,101203.75
2022-08-01T18:49:11.417Z,101205.88
2022-08-01T18:56:46.870Z,101211.56
2022-08-01T19:04:20.417Z,101224.63
2022-08-01T19:11:55.326Z,101227.59
2022-08-01T19:19:29.013Z,101237.75
2022-08-01T19:27:08.823Z,101238.22
2022-08-01T19:34:48.358Z,101250.31
2022-08-01T19:42:24.997Z,101256.03
2022-08-01T19:49:58.545Z,101273.59
2022-08-01T19:57:35.945Z,101276.63
2022-08-01T20:05:19.044Z,101280.75
2022-08-01T20:12:57.714Z,101279.53
2022-08-01T20:20:32.968Z,101300.63
2022-08-01T20:28:11.914Z,101306.16
2022-08-01T20:35:52.850Z,101309.00
2022-08-01T20:43:28.602Z,101329.09
2022-08-01T20:51:17.856Z,101332.88
2022-08-01T20:58:58.783Z,101343.94
2022-08-01T21:06:34.959Z,101347.63
2022-08-01T21:14:13.044Z,101340.50
2022-08-01T21:21:51.757Z,101348.72
2022-08-01T21:29:26.791Z,101348.06
2022-08-01T21:37:01.028Z,101354.63
2022-08-01T21:44:38.322Z,101376.53
2022-08-01T21:52:15.139Z,101384.06
2022-08-01T21:59:52.289Z,101390.69
2022-08-01T22:07:27.345Z,101396.19
2022-08-01T22:15:03.466Z,101397.13
2022-08-01T22:22:50.877Z,101411.63
2022-08-01T22:30:28.482Z,101412.63
2022-08-01T22:38:02.943Z,101408.19
2022-08-01T22:45:43.384Z,101413.66
2022-08-01T22:53:23.034Z,101400.19
2022-08-01T23:01:01.194Z,101408.44
2022-08-01T23:08:35.108Z,101405.00
2022-08-01T23:16:14.399Z,101402.34
2022-08-01T23:23:50.709Z,101409.66
2022-08-01T23:32:00.413Z,101416.09
2022-08-01T23:39:19.518Z,101416.19
2022-08-01T23:46:54.666Z,101414.50
2022-08-01T23:54:28.242Z,101413.53
